createdAt,value
2022-08-16T00:04:34.492Z,57.13
2022-08-16T00:09:41.684Z,57.20
2022-08-16T00:14:47.932Z,57.27
2022-08-16T00:19:55.181Z,57.34
2022-08-16T00:25:04.919Z,57.43
2022-08-16T00:30:19.439Z,57.51
2022-08-16T00:35:39.614Z,57.59
2022-08-16T00:40:50.907Z,57.66
2022-08-16T00:46:33.078Z,57.75
2022-08-16T00:51:29.508Z,57.82
2022-08-16T00:56:56.196Z,57.90
2022-08-16T01:02:30.203Z,58.00
2022-08-16T01:07:49.770Z,58.09
2022-08-16T01:12:55.717Z,58.21
2022-08-16T01:18:07.359Z,58.32
2022-08-16T01:23:58.685Z,58.42
2022-08-16T01:29:06.516Z,58.55
2022-08-16T01:34:25.150Z,58.66
2022-08-16T01:39:35.545Z,58.77
2022-08-16T01:44:41.959Z,58.88
2022-08-16T01:50:43.517Z,58.99
2022-08-16T01:55:14.616Z,59.08
2022-08-16T02:00:21.899Z,59.16
2022-08-16T02:05:36.386Z,59.26
2022-08-16T02:10:41.755Z,59.35
2022-08-16T02:15:47.350Z,59.45
2022-08-16T02:20:56.031Z,59.56
2022-08-16T02:26:02.968Z,59.67
2022-08-16T02:31:10.535Z,59.76
2022-08-16T02:36:47.927Z,59.85
2022-08-16T02:41:43.835Z,59.96
2022-08-16T02:46:49.863Z,60.05
2022-08-16T02:51:59.697Z,60.14
2022-08-16T02:57:07.228Z,60.23
2022-08-16T03:02:13.879Z,60.31
2022-08-16T03:07:27.340Z,60.40
2022-08-16T03:12:36.814Z,60.49
2022-08-16T03:18:00.418Z,60.58
2022-08-16T03:23:08.598Z,60.70
2022-08-16T03:28:14.438Z,60.81
2022-08-16T03:33:23.306Z,60.91
2022-08-16T03:38:35.504Z,61.01
2022-08-16T03:43:51.832Z,61.12
2022-08-16T03:49:00.600Z,61.24
2022-08-16T03:54:12.359Z,61.37
2022-08-16T03:59:19.679Z,61.49
2022-08-16T04:04:33.525Z,61.64
2022-08-16T04:09:41.722Z,61.77
2022-08-16T04:14:48.229Z,61.90
2022-08-16T04:19:54.955Z,62.03
2022-08-16T04:25:04.499Z,62.14
2022-08-16T04:30:32.151Z,62.24
2022-08-16T04:35:41.797Z,62.35
2022-08-16T04:40:48.112Z,62.45
2022-08-16T04:46:00.680Z,62.50
2022-08-16T04:51:12.283Z,62.54
2022-08-16T04:56:26.497Z,62.55
2022-08-16T05:01:55.961Z,62.51
2022-08-16T05:06:59.000Z,62.46
2022-08-16T05:12:21.932Z,62.42
2022-08-16T05:17:28.666Z,62.41
2022-08-16T05:22:39.659Z,62.42
2022-08-16T05:27:52.136Z,62.45
2022-08-16T05:32:58.526Z,62.52
2022-08-16T05:38:04.193Z,62.58
2022-08-16T05:43:32.046Z,62.54
2022-08-16T05:48:38.064Z,62.45
2022-08-16T05:53:47.394Z,62.42
2022-08-16T05:58:55.708Z,62.43
2022-08-16T06:04:01.306Z,62.45
2022-08-16T06:09:11.795Z,62.43
2022-08-16T06:14:20.148Z,62.42
2022-08-16T06:19:26.387Z,62.40
2022-08-16T06:24:54.280Z,62.38
2022-08-16T06:30:03.141Z,62.34
2022-08-16T06:35:10.326Z,62.26
2022-08-16T06:40:17.715Z,62.21
2022-08-16T06:45:29.438Z,62.16
2022-08-16T06:50:45.757Z,62.14
2022-08-16T06:55:53.752Z,62.12
2022-08-16T07:01:00.997Z,62.10
2022-08-16T07:06:08.812Z,62.06
2022-08-16T07:11:45.997Z,62.00
2022-08-16T07:16:48.662Z,61.94
2022-08-16T07:21:59.684Z,61.85
2022-08-16T07:27:08.416Z,61.75
2022-08-16T07:32:14.875Z,61.64
2022-08-16T07:37:22.349Z,61.51
2022-08-16T07:42:54.883Z,61.41
2022-08-16T07:48:11.012Z,61.28
2022-08-16T07:53:20.123Z,61.12
2022-08-16T07:58:34.942Z,60.97
2022-08-16T08:03:51.812Z,60.82
2022-08-16T08:09:01.421Z,60.67
2022-08-16T08:14:07.304Z,60.54
2022-08-16T08:19:19.886Z,60.40
2022-08-16T08:24:32.344Z,60.23
2022-08-16T08:29:40.120Z,60.02
2022-08-16T08:34:49.510Z,59.75
2022-08-16T08:39:57.077Z,59.53
2022-08-16T08:45:04.408Z,59.38
2022-08-16T08:50:13.201Z,59.19
2022-08-16T08:55:39.417Z,58.98
2022-08-16T09:00:51.259Z,58.83
2022-08-16T09:05:59.552Z,58.70
2022-08-16T09:11:07.859Z,58.42
2022-08-16T09:17:02.309Z,58.16
2022-08-16T09:21:43.477Z,57.97
2022-08-16T09:26:52.451Z,57.71
2022-08-16T09:31:58.665Z,57.24
2022-08-16T09:37:17.857Z,56.78
2022-08-16T09:42:25.050Z,56.38
2022-08-16T09:47:56.412Z,55.99
2022-08-16T09:52:55.792Z,55.66
2022-08-16T09:58:03.866Z,55.36
2022-08-16T10:03:11.096Z,55.08
2022-08-16T10:08:26.681Z,54.88
2022-08-16T10:13:34.185Z,54.77
2022-08-16T10:19:00.794Z,54.69
2022-08-16T10:24:06.363Z,54.52
2022-08-16T10:29:12.029Z,54.29
2022-08-16T10:34:32.151Z,54.14
2022-08-16T10:39:42.226Z,54.03
2022-08-16T10:44:54.923Z,53.69
2022-08-16T10:50:01.100Z,53.34
2022-08-16T11:00:36.810Z,53.02
2022-08-16T11:05:59.643Z,52.98
2022-08-16T11:11:12.867Z,53.37
2022-08-16T11:16:26.604Z,53.91
2022-08-16T11:21:32.897Z,54.38
2022-08-16T11:26:40.475Z,54.84
2022-08-16T11:31:54.310Z,55.14
2022-08-16T11:37:01.253Z,55.29
2022-08-16T11:42:16.770Z,55.38
2022-08-16T11:47:32.977Z,55.36
2022-08-16T11:52:39.130Z,55.38
2022-08-16T11:57:57.472Z,55.48
2022-08-16T12:03:03.235Z,55.60
2022-08-16T12:08:10.262Z,55.74
2022-08-16T12:13:18.059Z,55.81
2022-08-16T12:18:26.430Z,55.90
2022-08-16T12:23:32.098Z,56.03
2022-08-16T12:28:54.626Z,56.09
2022-08-16T12:34:01.492Z,56.19
2022-08-16T12:39:07.475Z,56.30
2022-08-16T12:44:13.496Z,56.35
2022-08-16T12:49:25.986Z,56.35
2022-08-16T12:54:36.542Z,56.37
2022-08-16T12:59:43.372Z,56.36
2022-08-16T13:04:49.534Z,56.35
2022-08-16T13:09:58.709Z,56.34
2022-08-16T13:15:04.189Z,56.29
2022-08-16T13:20:12.219Z,56.23
2022-08-16T13:25:20.791Z,56.19
2022-08-16T13:30:37.093Z,56.14
2022-08-16T13:35:55.622Z,56.03
2022-08-16T13:41:08.561Z,55.84
2022-08-16T13:46:14.633Z,55.65
2022-08-16T13:51:24.302Z,55.45
2022-08-16T13:56:34.543Z,55.21
2022-08-16T14:01:43.935Z,54.94
2022-08-16T14:06:50.738Z,54.76
2022-08-16T14:11:56.289Z,54.51
2022-08-16T14:17:03.595Z,54.21
2022-08-16T14:22:13.989Z,54.03
2022-08-16T14:27:23.051Z,53.82
2022-08-16T14:32:34.390Z,53.45
2022-08-16T14:37:42.971Z,53.19
2022-08-16T14:42:49.308Z,52.93
2022-08-16T14:47:56.811Z,52.64
2022-08-16T14:53:03.669Z,52.32
2022-08-16T14:58:10.478Z,51.90
2022-08-16T15:03:25.826Z,51.51
2022-08-16T15:08:36.401Z,51.19
2022-08-16T15:13:43.157Z,51.03
2022-08-16T15:18:49.585Z,50.77
2022-08-16T15:23:55.544Z,50.39
2022-08-16T15:29:01.068Z,49.99
2022-08-16T15:34:06.568Z,49.51
2022-08-16T15:39:27.924Z,49.00
2022-08-16T15:44:52.304Z,48.48
2022-08-16T15:49:59.566Z,48.20
2022-08-16T15:55:23.794Z,48.12
2022-08-16T16:00:33.559Z,48.02
2022-08-16T16:05:39.735Z,47.99
2022-08-16T16:10:54.255Z,47.95
2022-08-16T16:16:03.249Z,47.89
2022-08-16T16:21:12.457Z,47.89
2022-08-16T16:26:26.856Z,47.93
2022-08-16T16:31:33.715Z,48.01
2022-08-16T16:36:48.270Z,48.13
2022-08-16T16:41:54.466Z,48.22
2022-08-16T16:46:59.905Z,48.27
2022-08-16T16:52:06.908Z,48.32
2022-08-16T16:57:33.712Z,48.37
2022-08-16T17:02:49.670Z,48.47
2022-08-16T17:08:00.982Z,48.56
2022-08-16T17:13:09.308Z,48.70
2022-08-16T17:19:15.670Z,48.86
2022-08-16T17:23:58.112Z,49.07
2022-08-16T17:29:11.103Z,49.38
2022-08-16T17:34:30.429Z,49.95
2022-08-16T17:39:45.376Z,50.54
2022-08-16T17:45:04.260Z,51.05
2022-08-16T17:50:11.075Z,51.48
2022-08-16T17:55:22.138Z,51.92
2022-08-16T18:00:28.309Z,52.32
2022-08-16T18:05:34.607Z,52.68
2022-08-16T18:10:40.693Z,53.01
2022-08-16T18:15:46.109Z,53.32
2022-08-16T18:21:09.524Z,53.60
2022-08-16T18:26:14.988Z,53.88
2022-08-16T18:31:20.482Z,54.11
2022-08-16T18:36:26.707Z,54.37
2022-08-16T18:41:37.475Z,54.60
2022-08-16T18:46:44.390Z,54.81
2022-08-16T18:51:51.211Z,55.04
2022-08-16T18:56:58.242Z,55.28
2022-08-16T19:02:05.643Z,55.51
2022-08-16T19:07:11.617Z,55.72
2022-08-16T19:12:17.606Z,55.93
2022-08-16T19:17:43.477Z,56.19
2022-08-16T19:23:05.569Z,56.38
2022-08-16T19:28:49.993Z,56.50
2022-08-16T19:33:38.649Z,56.61
2022-08-16T19:38:43.971Z,56.73
2022-08-16T19:43:50.208Z,56.90
2022-08-16T19:48:55.779Z,57.16
2022-08-16T19:54:01.386Z,57.51
2022-08-16T19:59:40.544Z,57.69
2022-08-16T20:04:33.378Z,57.79
2022-08-16T20:09:39.076Z,57.91
2022-08-16T20:14:45.600Z,58.18
2022-08-16T20:19:51.335Z,58.45
2022-08-16T20:24:57.315Z,58.81
2022-08-16T20:30:03.008Z,59.11
2022-08-16T20:35:12.199Z,59.41
2022-08-16T20:40:34.786Z,59.79
2022-08-16T20:45:41.898Z,60.22
2022-08-16T20:50:47.792Z,60.56
2022-08-16T20:55:53.486Z,60.82
2022-08-16T21:00:59.465Z,60.98
2022-08-16T21:06:06.044Z,61.23
2022-08-16T21:11:11.564Z,61.48
2022-08-16T21:16:19.047Z,61.81
2022-08-16T21:21:24.633Z,62.06
2022-08-16T21:26:39.178Z,62.28
2022-08-16T21:31:45.895Z,62.48
2022-08-16T21:36:51.498Z,62.62
2022-08-16T21:41:56.977Z,62.74
2022-08-16T21:47:02.554Z,62.83
2022-08-16T21:52:09.008Z,62.87
2022-08-16T21:57:15.158Z,63.00
2022-08-16T22:02:21.247Z,63.23
2022-08-16T22:07:27.082Z,63.39
2022-08-16T22:12:33.049Z,63.44
2022-08-16T22:17:39.993Z,63.55
2022-08-16T22:22:45.808Z,63.82
2022-08-16T22:27:51.307Z,64.08
2022-08-16T22:32:56.907Z,64.28
2022-08-16T22:38:55.963Z,64.42
2022-08-16T22:43:28.890Z,64.45
2022-08-16T22:48:39.261Z,64.54
2022-08-16T22:53:48.028Z,64.64
2022-08-16T22:58:53.725Z,64.75
2022-08-16T23:03:59.870Z,64.75
2022-08-16T23:09:05.449Z,64.87
2022-08-16T23:14:11.093Z,65.04
2022-08-16T23:19:17.811Z,65.18
2022-08-16T23:24:24.845Z,65.28
2022-08-16T23:29:30.314Z,65.34
2022-08-16T23:34:37.488Z,65.39
2022-08-16T23:39:44.468Z,65.45
2022-08-16T23:44:57.955Z,65.48
2022-08-16T23:50:04.485Z,65.52
2022-08-16T23:55:10.934Z,65.54
